createdAt,value
2017-12-22T00:00:33.785Z,17.09
2017-12-22T00:01:33.583Z,17.09
2017-12-22T00:02:34.015Z,17.09
2017-12-22T00:03:34.183Z,17.11
2017-12-22T00:04:34.231Z,17.09
2017-12-22T00:05:34.033Z,17.08
2017-12-22T00:06:33.961Z,17.07
2017-12-22T00:07:33.962Z,17.07
2017-12-22T00:08:33.591Z,17.04
2017-12-22T00:09:34.171Z,17.04
2017-12-22T00:10:34.238Z,17.04
2017-12-22T00:11:33.939Z,17.02
2017-12-22T00:12:34.140Z,17.01
2017-12-22T00:13:33.565Z,17.04
2017-12-22T00:14:34.008Z,17.02
2017-12-22T00:15:33.820Z,17.01
2017-12-22T00:16:33.775Z,17.02
2017-12-22T00:17:33.801Z,16.99
2017-12-22T00:18:33.984Z,17.01
2017-12-22T00:19:33.623Z,16.99
2017-12-22T00:20:33.962Z,16.99
2017-12-22T00:21:33.808Z,16.98
2017-12-22T00:22:33.624Z,16.99
2017-12-22T00:23:33.773Z,16.97
2017-12-22T00:24:33.993Z,16.98
2017-12-22T00:25:34.220Z,16.95
2017-12-22T00:26:33.779Z,16.97
2017-12-22T00:27:34.016Z,16.95
2017-12-22T00:28:34.189Z,16.98
2017-12-22T00:29:34.184Z,16.95
2017-12-22T00:30:34.200Z,16.95
2017-12-22T00:31:34.015Z,16.94
2017-12-22T00:32:34.262Z,16.92
2017-12-22T00:33:34.163Z,16.92
2017-12-22T00:34:33.659Z,16.92
2017-12-22T00:35:34.249Z,16.95
2017-12-22T00:36:34.037Z,16.94
2017-12-22T00:37:34.059Z,16.92
2017-12-22T00:38:34.003Z,16.94
2017-12-22T00:39:34.007Z,16.92
2017-12-22T00:40:33.932Z,16.91
2017-12-22T00:41:33.774Z,16.92
2017-12-22T00:42:34.006Z,16.92
2017-12-22T00:43:34.018Z,16.9
2017-12-22T00:44:34.364Z,16.91
2017-12-22T00:45:33.984Z,16.9
2017-12-22T00:46:33.954Z,16.9
2017-12-22T00:47:33.950Z,16.91
2017-12-22T00:48:33.989Z,16.88
2017-12-22T00:49:34.011Z,16.88
2017-12-22T00:50:33.835Z,16.87
2017-12-22T00:51:33.623Z,16.88
2017-12-22T00:52:33.779Z,16.88
2017-12-22T00:53:33.635Z,16.87
2017-12-22T00:54:33.834Z,16.88
2017-12-22T00:55:33.810Z,16.87
2017-12-22T00:56:34.250Z,16.87
2017-12-22T00:57:33.618Z,16.84
2017-12-22T00:58:33.798Z,16.86
2017-12-22T00:59:34.032Z,16.84
2017-12-22T01:00:33.987Z,16.84
2017-12-22T01:01:33.863Z,16.84
2017-12-22T01:02:34.011Z,16.87
2017-12-22T01:03:34.205Z,16.84
2017-12-22T01:04:33.793Z,16.83
2017-12-22T01:05:34.027Z,16.83
2017-12-22T01:06:34.247Z,16.83
2017-12-22T01:07:34.179Z,16.8
2017-12-22T01:08:33.634Z,16.83
2017-12-22T01:09:34.156Z,16.81
2017-12-22T01:10:34.353Z,16.81
2017-12-22T01:11:34.041Z,16.83
2017-12-22T01:12:33.776Z,16.81
2017-12-22T01:13:33.843Z,16.8
2017-12-22T01:14:34.209Z,16.81
2017-12-22T01:15:33.886Z,16.81
2017-12-22T01:16:33.799Z,16.8
2017-12-22T01:17:34.057Z,16.8
2017-12-22T01:18:34.287Z,16.77
2017-12-22T01:19:34.152Z,16.78
2017-12-22T01:20:34.013Z,16.8
2017-12-22T01:21:33.834Z,16.78
2017-12-22T01:22:33.810Z,16.78
2017-12-22T01:23:34.203Z,16.77
2017-12-22T01:24:34.010Z,16.75
2017-12-22T01:25:33.874Z,16.75
2017-12-22T01:26:33.790Z,16.78
2017-12-22T01:27:34.161Z,16.73
2017-12-22T01:28:34.001Z,16.75
2017-12-22T01:29:33.778Z,16.75
2017-12-22T01:30:34.096Z,16.75
2017-12-22T01:31:34.077Z,16.75
2017-12-22T01:32:33.675Z,16.74
2017-12-22T01:33:33.442Z,16.75
2017-12-22T01:34:34.211Z,16.73
2017-12-22T01:35:34.095Z,16.74
2017-12-22T01:36:33.619Z,16.73
2017-12-22T01:37:33.902Z,16.71
2017-12-22T01:38:34.083Z,16.74
2017-12-22T01:39:33.865Z,16.71
2017-12-22T01:40:34.251Z,16.73
2017-12-22T01:41:34.173Z,16.71
2017-12-22T01:42:34.044Z,16.71
2017-12-22T01:43:33.812Z,16.7
2017-12-22T01:44:34.260Z,16.7
2017-12-22T01:45:33.816Z,16.68
2017-12-22T01:46:33.830Z,16.68
2017-12-22T01:47:34.230Z,16.7
2017-12-22T01:48:34.182Z,16.67
2017-12-22T01:49:33.804Z,16.7
2017-12-22T01:50:34.189Z,16.67
2017-12-22T01:51:34.176Z,16.67
2017-12-22T01:52:34.374Z,16.64
2017-12-22T01:53:33.986Z,16.66
2017-12-22T01:54:34.180Z,16.67
2017-12-22T01:55:33.863Z,16.7
2017-12-22T01:56:34.240Z,16.67
2017-12-22T01:57:34.257Z,16.67
2017-12-22T01:58:33.988Z,16.67
2017-12-22T01:59:34.216Z,16.66
2017-12-22T02:00:34.053Z,16.64
2017-12-22T02:01:33.864Z,16.66
2017-12-22T02:02:33.850Z,16.67
2017-12-22T02:03:34.031Z,16.66
2017-12-22T02:04:33.600Z,16.66
2017-12-22T02:05:34.034Z,16.64
2017-12-22T02:06:33.847Z,16.64
2017-12-22T02:07:34.090Z,16.63
2017-12-22T02:08:34.031Z,16.63
2017-12-22T02:09:33.830Z,16.64
2017-12-22T02:10:33.822Z,16.63
2017-12-22T02:11:34.216Z,16.62
2017-12-22T02:12:33.688Z,16.63
2017-12-22T02:13:34.062Z,16.63
2017-12-22T02:14:33.831Z,16.6
2017-12-22T02:15:34.007Z,16.6
2017-12-22T02:16:33.966Z,16.63
2017-12-22T02:17:33.593Z,16.62
2017-12-22T02:18:33.979Z,16.63
2017-12-22T02:19:34.079Z,16.62
2017-12-22T02:20:33.846Z,16.6
2017-12-22T02:21:34.065Z,16.59
2017-12-22T02:22:34.043Z,16.6
2017-12-22T02:23:34.023Z,16.62
2017-12-22T02:24:33.837Z,16.6
2017-12-22T02:25:33.982Z,16.6
2017-12-22T02:26:33.990Z,16.59
2017-12-22T02:27:33.848Z,16.62
2017-12-22T02:28:33.835Z,16.57
2017-12-22T02:29:33.657Z,16.6
2017-12-22T02:30:33.879Z,16.56
2017-12-22T02:31:34.230Z,16.56
2017-12-22T02:32:34.242Z,16.56
2017-12-22T02:33:34.250Z,16.57
2017-12-22T02:34:34.225Z,16.57
2017-12-22T02:35:34.048Z,16.59
2017-12-22T02:36:34.259Z,16.59
2017-12-22T02:37:34.287Z,16.57
2017-12-22T02:38:34.304Z,16.54
2017-12-22T02:39:34.061Z,16.57
2017-12-22T02:40:34.236Z,16.57
2017-12-22T02:41:34.255Z,16.54
2017-12-22T02:42:34.067Z,16.54
2017-12-22T02:43:33.860Z,16.54
2017-12-22T02:44:34.057Z,16.54
2017-12-22T02:45:33.861Z,16.53
2017-12-22T02:46:34.061Z,16.5
2017-12-22T02:47:33.852Z,16.53
2017-12-22T02:48:34.576Z,16.54
2017-12-22T02:49:34.221Z,16.53
2017-12-22T02:50:34.216Z,16.52
2017-12-22T02:51:34.264Z,16.53
2017-12-22T02:52:34.008Z,16.52
2017-12-22T02:53:34.105Z,16.52
2017-12-22T02:54:34.101Z,16.52
2017-12-22T02:55:34.272Z,16.52
2017-12-22T02:56:33.822Z,16.52
2017-12-22T02:57:34.036Z,16.52
2017-12-22T02:58:33.730Z,16.53
2017-12-22T02:59:34.035Z,16.53
2017-12-22T03:00:34.041Z,16.53
2017-12-22T03:01:34.233Z,16.5
2017-12-22T03:02:34.051Z,16.49
2017-12-22T03:03:34.290Z,16.5
2017-12-22T03:04:34.215Z,16.49
2017-12-22T03:05:34.027Z,16.52
2017-12-22T03:06:33.839Z,16.49
2017-12-22T03:07:33.851Z,16.49
2017-12-22T03:08:34.220Z,16.49
2017-12-22T03:09:34.339Z,16.5
2017-12-22T03:10:33.903Z,16.52
2017-12-22T03:11:34.056Z,16.47
2017-12-22T03:12:34.041Z,16.47
2017-12-22T03:13:33.605Z,16.49
2017-12-22T03:14:34.074Z,16.45
2017-12-22T03:15:34.030Z,16.49
2017-12-22T03:16:33.831Z,16.49
2017-12-22T03:17:33.647Z,16.47
2017-12-22T03:18:34.227Z,16.46
2017-12-22T03:19:33.864Z,16.47
2017-12-22T03:20:33.872Z,16.46
2017-12-22T03:21:34.307Z,16.47
2017-12-22T03:22:34.037Z,16.45
2017-12-22T03:23:33.637Z,16.46
2017-12-22T03:24:34.001Z,16.46
2017-12-22T03:25:34.214Z,16.45
2017-12-22T03:26:34.128Z,16.42
2017-12-22T03:27:33.992Z,16.46
2017-12-22T03:28:34.043Z,16.45
2017-12-22T03:29:34.018Z,16.43
2017-12-22T03:30:34.316Z,16.42
2017-12-22T03:31:34.219Z,16.45
2017-12-22T03:32:33.658Z,16.43
2017-12-22T03:33:34.229Z,16.42
2017-12-22T03:34:33.872Z,16.43
2017-12-22T03:35:33.670Z,16.42
2017-12-22T03:36:34.224Z,16.43
2017-12-22T03:37:33.843Z,16.45
2017-12-22T03:38:34.048Z,16.43
2017-12-22T03:39:34.035Z,16.42
2017-12-22T03:40:34.385Z,16.43
2017-12-22T03:41:33.659Z,16.4
2017-12-22T03:42:34.069Z,16.39
2017-12-22T03:43:34.092Z,16.42
2017-12-22T03:44:34.288Z,16.4
2017-12-22T03:45:34.067Z,16.37
2017-12-22T03:46:33.618Z,16.37
2017-12-22T03:47:34.004Z,16.43
2017-12-22T03:48:34.032Z,16.39
2017-12-22T03:49:34.057Z,16.4
2017-12-22T03:50:33.689Z,16.39
2017-12-22T03:51:34.013Z,16.39
2017-12-22T03:52:33.823Z,16.4
2017-12-22T03:53:33.861Z,16.4
2017-12-22T03:54:33.870Z,16.36
2017-12-22T03:56:34.020Z,16.37
2017-12-22T03:57:34.087Z,16.37
2017-12-22T03:58:34.216Z,16.4
2017-12-22T03:59:34.308Z,16.37
2017-12-22T04:00:33.701Z,16.37
2017-12-22T04:01:33.673Z,16.37
2017-12-22T04:02:33.901Z,16.36
2017-12-22T04:03:33.859Z,16.37
2017-12-22T04:04:34.028Z,16.36
2017-12-22T04:05:34.080Z,16.37
2017-12-22T04:06:34.258Z,16.35
2017-12-22T04:07:33.967Z,16.36
2017-12-22T04:08:33.682Z,16.35
2017-12-22T04:09:34.089Z,16.33
2017-12-22T04:10:34.058Z,16.33
2017-12-22T04:11:34.093Z,16.35
2017-12-22T04:12:33.905Z,16.37
2017-12-22T04:13:33.806Z,16.33
2017-12-22T04:14:33.487Z,16.33
2017-12-22T04:15:34.265Z,16.35
2017-12-22T04:16:33.832Z,16.36
2017-12-22T04:17:33.695Z,16.32
2017-12-22T04:18:34.328Z,16.32
2017-12-22T04:19:33.910Z,16.32
2017-12-22T04:20:33.849Z,16.33
2017-12-22T04:21:34.062Z,16.33
2017-12-22T04:22:34.052Z,16.32
2017-12-22T04:23:34.311Z,16.32
2017-12-22T04:24:34.235Z,16.32
2017-12-22T04:25:33.893Z,16.31
2017-12-22T04:26:33.691Z,16.31
2017-12-22T04:27:33.871Z,16.31
2017-12-22T04:28:33.665Z,16.31
2017-12-22T04:29:33.838Z,16.29
2017-12-22T04:30:33.637Z,16.33
2017-12-22T04:31:33.891Z,16.29
2017-12-22T04:32:34.028Z,16.32
2017-12-22T04:33:33.866Z,16.29
2017-12-22T04:34:33.716Z,16.29
2017-12-22T04:35:34.055Z,16.31
2017-12-22T04:36:33.894Z,16.32
2017-12-22T04:37:34.069Z,16.29
2017-12-22T04:38:33.879Z,16.31
2017-12-22T04:39:33.859Z,16.31
2017-12-22T04:40:34.261Z,16.29
2017-12-22T04:41:33.808Z,16.29
2017-12-22T04:42:33.769Z,16.28
2017-12-22T04:43:34.314Z,16.29
2017-12-22T04:44:33.754Z,16.29
2017-12-22T04:45:33.883Z,16.28
2017-12-22T04:46:33.869Z,16.31
2017-12-22T04:47:33.499Z,16.28
2017-12-22T04:48:34.121Z,16.26
2017-12-22T04:49:34.092Z,16.28
2017-12-22T04:50:34.233Z,16.29
2017-12-22T04:51:34.244Z,16.28
2017-12-22T04:52:33.691Z,16.29
2017-12-22T04:53:34.483Z,16.26
2017-12-22T04:54:34.062Z,16.28
2017-12-22T04:55:34.430Z,16.29
2017-12-22T04:56:34.483Z,16.28
2017-12-22T04:57:34.203Z,16.28
2017-12-22T04:58:34.054Z,16.29
2017-12-22T04:59:34.380Z,16.31
2017-12-22T05:00:33.655Z,16.29
2017-12-22T05:01:34.923Z,16.31
2017-12-22T05:02:34.101Z,16.31
2017-12-22T05:03:34.159Z,16.31
2017-12-22T05:04:34.376Z,16.36
2017-12-22T05:05:33.999Z,16.33
2017-12-22T05:06:34.492Z,16.33
2017-12-22T05:07:33.593Z,16.36
2017-12-22T05:08:33.966Z,16.37
2017-12-22T05:09:34.200Z,16.35
2017-12-22T05:10:34.041Z,16.36
2017-12-22T05:11:34.772Z,16.37
2017-12-22T05:12:34.306Z,16.39
2017-12-22T05:13:34.217Z,16.4
2017-12-22T05:14:34.495Z,16.4
2017-12-22T05:15:34.291Z,16.42
2017-12-22T05:16:33.808Z,16.43
2017-12-22T05:17:34.140Z,16.46
2017-12-22T05:18:34.079Z,16.47
2017-12-22T05:19:34.563Z,16.49
2017-12-22T05:20:34.399Z,16.49
2017-12-22T05:21:34.183Z,16.49
2017-12-22T05:22:34.019Z,16.5
2017-12-22T05:23:34.187Z,16.54
2017-12-22T05:24:34.584Z,16.54
2017-12-22T05:25:34.322Z,16.56
2017-12-22T05:26:34.073Z,16.59
2017-12-22T05:27:34.513Z,16.62
2017-12-22T05:28:34.272Z,16.64
2017-12-22T05:29:34.381Z,16.66
2017-12-22T05:30:33.918Z,16.66
2017-12-22T05:31:34.225Z,16.7
2017-12-22T05:32:34.023Z,16.71
2017-12-22T05:33:34.164Z,16.74
2017-12-22T05:34:36.022Z,16.74
2017-12-22T05:35:34.133Z,16.75
2017-12-22T05:36:34.515Z,16.78
2017-12-22T05:37:33.961Z,16.81
2017-12-22T05:38:34.112Z,16.86
2017-12-22T05:39:34.221Z,16.83
2017-12-22T05:40:34.081Z,16.86
2017-12-22T05:41:33.984Z,16.87
2017-12-22T05:42:34.283Z,16.91
2017-12-22T05:43:34.509Z,16.94
2017-12-22T05:44:34.503Z,16.95
2017-12-22T05:45:33.962Z,16.95
2017-12-22T05:46:34.153Z,16.99
2017-12-22T05:47:34.858Z,16.98
2017-12-22T05:48:33.947Z,17.02
2017-12-22T05:49:34.152Z,17.02
2017-12-22T05:50:33.967Z,17.04
2017-12-22T05:51:34.163Z,17.08
2017-12-22T05:52:34.127Z,17.07
2017-12-22T05:53:34.239Z,17.08
2017-12-22T05:54:33.764Z,17.11
2017-12-22T05:55:34.217Z,17.12
2017-12-22T05:56:34.482Z,17.14
2017-12-22T05:57:40.741Z,17.15
2017-12-22T05:58:34.069Z,17.18
2017-12-22T05:59:33.808Z,17.16
2017-12-22T06:00:34.047Z,17.19
2017-12-22T06:01:34.390Z,17.22
2017-12-22T06:02:34.568Z,17.22
2017-12-22T06:03:35.083Z,17.25
2017-12-22T06:04:34.380Z,17.27
2017-12-22T06:05:34.066Z,17.26
2017-12-22T06:06:34.237Z,17.29
2017-12-22T06:07:34.833Z,17.3
2017-12-22T06:08:34.858Z,17.3
2017-12-22T06:09:34.682Z,17.32
2017-12-22T06:10:35.569Z,17.35
2017-12-22T06:11:35.454Z,17.37
2017-12-22T06:12:33.790Z,17.37
2017-12-22T06:13:34.393Z,17.37
2017-12-22T06:14:34.889Z,17.39
2017-12-22T06:15:34.768Z,17.4
2017-12-22T06:16:34.956Z,17.42
2017-12-22T06:17:34.522Z,17.43
2017-12-22T06:18:33.893Z,17.43
2017-12-22T06:19:33.885Z,17.46
2017-12-22T06:20:34.254Z,17.44
2017-12-22T06:21:34.175Z,17.49
2017-12-22T06:22:35.388Z,17.49
2017-12-22T06:23:34.205Z,17.49
2017-12-22T06:24:34.206Z,17.5
2017-12-22T06:25:33.677Z,17.53
2017-12-22T06:26:33.831Z,17.5
2017-12-22T06:27:34.538Z,17.53
2017-12-22T06:28:34.474Z,17.53
2017-12-22T06:29:34.214Z,17.57
2017-12-22T06:30:34.457Z,17.58
2017-12-22T06:31:33.980Z,17.58
2017-12-22T06:32:34.042Z,17.61
2017-12-22T06:33:34.426Z,17.6
2017-12-22T06:34:33.850Z,17.61
2017-12-22T06:35:34.187Z,17.61
2017-12-22T06:36:34.970Z,17.64
2017-12-22T06:37:33.949Z,17.63
2017-12-22T06:38:34.878Z,17.66
2017-12-22T06:39:34.190Z,17.67
2017-12-22T06:40:33.648Z,17.66
2017-12-22T06:41:34.293Z,17.67
2017-12-22T06:42:33.850Z,17.69
2017-12-22T06:43:34.166Z,17.69
2017-12-22T06:44:34.080Z,17.71
2017-12-22T06:45:34.158Z,17.71
2017-12-22T06:46:34.936Z,17.71
2017-12-22T06:47:34.943Z,17.74
2017-12-22T06:48:34.337Z,17.73
2017-12-22T06:49:34.263Z,17.77
2017-12-22T06:50:34.203Z,17.76
2017-12-22T06:51:34.049Z,17.77
2017-12-22T06:52:33.919Z,17.76
2017-12-22T06:53:34.913Z,17.78
2017-12-22T06:54:34.680Z,17.8
2017-12-22T06:55:34.696Z,17.81
2017-12-22T06:56:35.038Z,17.82
2017-12-22T06:57:34.482Z,17.81
2017-12-22T06:58:35.119Z,17.82
2017-12-22T06:59:35.257Z,17.81
2017-12-22T07:00:35.097Z,17.82
2017-12-22T07:01:34.651Z,17.85
2017-12-22T07:02:35.099Z,17.85
2017-12-22T07:03:34.645Z,17.84
2017-12-22T07:04:34.715Z,17.85
2017-12-22T07:05:35.050Z,17.85
2017-12-22T07:06:34.156Z,17.88
2017-12-22T07:07:35.042Z,17.89
2017-12-22T07:08:35.400Z,17.88
2017-12-22T07:09:34.267Z,17.89
2017-12-22T07:10:34.460Z,17.88
2017-12-22T07:11:34.472Z,17.89
2017-12-22T07:12:34.539Z,17.89
2017-12-22T07:13:33.948Z,17.91
2017-12-22T07:14:33.908Z,17.91
2017-12-22T07:15:35.834Z,17.91
2017-12-22T07:16:35.051Z,17.92
2017-12-22T07:17:34.684Z,17.91
2017-12-22T07:18:34.216Z,17.94
2017-12-22T07:19:34.187Z,17.91
2017-12-22T07:20:33.930Z,17.89
2017-12-22T07:21:34.146Z,17.92
2017-12-22T07:22:34.687Z,17.89
2017-12-22T07:23:35.270Z,17.88
2017-12-22T07:24:34.672Z,17.89
2017-12-22T07:25:33.931Z,17.91
2017-12-22T07:26:33.926Z,17.91
2017-12-22T07:27:33.980Z,17.89
2017-12-22T07:28:34.131Z,17.92
2017-12-22T07:29:33.737Z,17.89
2017-12-22T07:30:33.777Z,17.89
2017-12-22T07:31:34.123Z,17.89
2017-12-22T07:32:33.816Z,17.87
2017-12-22T07:33:33.734Z,17.91
2017-12-22T07:34:33.866Z,17.87
2017-12-22T07:35:33.542Z,17.85
2017-12-22T07:36:34.109Z,17.87
2017-12-22T07:37:34.003Z,17.87
2017-12-22T07:38:33.791Z,17.88
2017-12-22T07:39:33.740Z,17.88
2017-12-22T07:40:33.939Z,17.88
2017-12-22T07:41:33.986Z,17.84
2017-12-22T07:42:34.150Z,17.87
2017-12-22T07:43:34.167Z,17.87
2017-12-22T07:44:34.137Z,17.88
2017-12-22T07:45:33.894Z,17.85
2017-12-22T07:46:34.185Z,17.87
2017-12-22T07:47:33.766Z,17.84
2017-12-22T07:48:34.752Z,17.85
2017-12-22T07:49:33.927Z,17.84
2017-12-22T07:50:34.083Z,17.85
2017-12-22T07:51:34.227Z,17.84
2017-12-22T07:52:33.933Z,17.88
2017-12-22T07:53:34.580Z,17.87
2017-12-22T07:54:34.304Z,17.85
2017-12-22T07:55:34.103Z,17.87
2017-12-22T07:56:34.221Z,17.87
2017-12-22T07:57:33.854Z,17.88
2017-12-22T07:58:34.160Z,17.87
2017-12-22T07:59:34.024Z,17.88
2017-12-22T08:00:34.185Z,17.87
2017-12-22T08:01:34.044Z,17.88
2017-12-22T08:02:34.359Z,17.87
2017-12-22T08:03:33.781Z,17.88
2017-12-22T08:04:34.151Z,17.88
2017-12-22T08:05:33.948Z,17.89
2017-12-22T08:06:34.195Z,17.89
2017-12-22T08:07:33.968Z,17.89
2017-12-22T08:08:33.938Z,17.91
2017-12-22T08:09:34.331Z,17.91
2017-12-22T08:10:33.995Z,17.91
2017-12-22T08:11:33.979Z,17.94
2017-12-22T08:12:33.948Z,17.92
2017-12-22T08:13:33.921Z,17.92
2017-12-22T08:14:33.935Z,17.92
2017-12-22T08:15:34.065Z,17.94
2017-12-22T08:16:33.968Z,17.92
2017-12-22T08:17:33.549Z,17.92
2017-12-22T08:18:33.579Z,17.92
2017-12-22T08:19:33.884Z,17.92
2017-12-22T08:20:33.770Z,17.92
2017-12-22T08:21:34.381Z,17.92
2017-12-22T08:22:34.381Z,17.92
2017-12-22T08:23:33.987Z,17.92
2017-12-22T08:24:34.364Z,17.94
2017-12-22T08:25:33.622Z,17.94
2017-12-22T08:26:34.113Z,17.94
2017-12-22T08:27:33.904Z,17.94
2017-12-22T08:28:33.951Z,17.92
2017-12-22T08:29:34.176Z,17.94
2017-12-22T08:30:34.223Z,17.95
2017-12-22T08:31:34.209Z,17.94
2017-12-22T08:32:33.733Z,17.94
2017-12-22T08:33:34.127Z,17.92
2017-12-22T08:34:33.933Z,17.94
2017-12-22T08:35:33.956Z,17.92
2017-12-22T08:36:34.162Z,17.92
2017-12-22T08:37:33.759Z,17.92
2017-12-22T08:38:33.974Z,17.91
2017-12-22T08:39:34.165Z,17.92
2017-12-22T08:40:34.152Z,17.91
2017-12-22T08:41:34.314Z,17.92
2017-12-22T08:42:34.155Z,17.94
2017-12-22T08:43:34.104Z,17.91
2017-12-22T08:44:34.127Z,17.92
2017-12-22T08:45:34.005Z,17.92
2017-12-22T08:46:33.981Z,17.91
2017-12-22T08:47:33.981Z,17.89
2017-12-22T08:48:33.959Z,17.92
2017-12-22T08:49:33.804Z,17.91
2017-12-22T08:50:34.033Z,17.91
2017-12-22T08:51:34.174Z,17.94
2017-12-22T08:52:34.005Z,17.92
2017-12-22T08:53:34.187Z,17.92
2017-12-22T08:54:34.335Z,17.95
2017-12-22T08:55:34.192Z,17.92
2017-12-22T08:56:33.959Z,17.92
2017-12-22T08:57:34.175Z,17.95
2017-12-22T08:58:34.035Z,17.97
2017-12-22T08:59:34.004Z,17.95
2017-12-22T09:00:33.784Z,17.95
2017-12-22T09:01:34.015Z,17.97
2017-12-22T09:02:33.942Z,17.97
2017-12-22T09:03:34.419Z,17.97
2017-12-22T09:04:34.235Z,17.98
2017-12-22T09:05:33.972Z,17.99
2017-12-22T09:06:34.010Z,17.99
2017-12-22T09:07:34.431Z,18.01
2017-12-22T09:08:34.426Z,18.01
2017-12-22T09:09:33.925Z,18.04
2017-12-22T09:10:34.409Z,18.04
2017-12-22T09:11:33.967Z,18.01
2017-12-22T09:12:34.167Z,18.05
2017-12-22T09:13:39.735Z,18.05
2017-12-22T09:14:33.824Z,18.04
2017-12-22T09:15:34.187Z,18.04
2017-12-22T09:16:33.805Z,18.05
2017-12-22T09:17:33.779Z,18.06
2017-12-22T09:18:33.764Z,18.06
2017-12-22T09:19:34.362Z,18.05
2017-12-22T09:20:33.988Z,18.08
2017-12-22T09:21:34.414Z,18.06
2017-12-22T09:22:34.012Z,18.09
2017-12-22T09:23:34.346Z,18.06
2017-12-22T09:24:34.402Z,18.09
2017-12-22T09:25:34.352Z,18.08
2017-12-22T09:26:34.205Z,18.08
2017-12-22T09:27:33.821Z,18.06
2017-12-22T09:28:34.228Z,18.09
2017-12-22T09:29:56.350Z,18.09
2017-12-22T09:30:33.993Z,18.09
2017-12-22T09:31:34.444Z,18.09
2017-12-22T09:32:33.986Z,18.09
2017-12-22T09:33:33.550Z,18.11
2017-12-22T09:34:34.152Z,18.11
2017-12-22T09:35:34.185Z,18.12
2017-12-22T09:36:34.170Z,18.12
2017-12-22T09:37:34.445Z,18.12
2017-12-22T09:38:34.193Z,18.09
2017-12-22T09:39:34.029Z,18.11
2017-12-22T09:40:34.463Z,18.12
2017-12-22T09:41:34.177Z,18.09
2017-12-22T09:42:33.949Z,18.12
2017-12-22T09:43:34.172Z,18.15
2017-12-22T09:44:34.178Z,18.13
2017-12-22T09:45:34.214Z,18.13
2017-12-22T09:46:34.217Z,18.12
2017-12-22T09:47:34.121Z,18.13
2017-12-22T09:48:33.815Z,18.13
2017-12-22T09:49:33.800Z,18.16
2017-12-22T09:50:33.810Z,18.13
2017-12-22T09:51:33.967Z,18.17
2017-12-22T09:52:34.210Z,18.17
2017-12-22T09:53:33.994Z,18.15
2017-12-22T09:54:34.153Z,18.16
2017-12-22T09:55:34.130Z,18.16
2017-12-22T09:56:34.045Z,18.16
2017-12-22T09:57:33.998Z,18.16
2017-12-22T09:58:33.957Z,18.19
2017-12-22T09:59:34.005Z,18.16
2017-12-22T10:00:34.413Z,18.16
2017-12-22T10:01:34.020Z,18.17
2017-12-22T10:02:33.983Z,18.15
2017-12-22T10:03:34.433Z,18.16
2017-12-22T10:04:34.301Z,18.16
2017-12-22T10:05:34.220Z,18.19
2017-12-22T10:06:34.246Z,18.15
2017-12-22T10:07:34.055Z,18.17
2017-12-22T10:08:34.252Z,18.17
2017-12-22T10:09:34.207Z,18.19
2017-12-22T10:10:34.221Z,18.16
2017-12-22T10:11:34.412Z,18.16
2017-12-22T10:12:34.183Z,18.17
2017-12-22T10:13:34.000Z,18.19
2017-12-22T10:14:34.229Z,18.16
2017-12-22T10:15:33.592Z,18.16
2017-12-22T10:16:34.172Z,18.17
2017-12-22T10:17:34.171Z,18.17
2017-12-22T10:18:34.405Z,18.17
2017-12-22T10:19:34.211Z,18.17
2017-12-22T10:20:34.466Z,18.17
2017-12-22T10:21:34.031Z,18.17
2017-12-22T10:22:34.150Z,18.15
2017-12-22T10:23:34.244Z,18.16
2017-12-22T10:24:34.418Z,18.16
2017-12-22T10:25:34.154Z,18.16
2017-12-22T10:26:34.413Z,18.16
2017-12-22T10:27:34.443Z,18.15
2017-12-22T10:28:34.368Z,18.17
2017-12-22T10:29:33.802Z,18.13
2017-12-22T10:30:34.188Z,18.16
2017-12-22T10:31:34.402Z,18.16
2017-12-22T10:32:34.149Z,18.15
2017-12-22T10:33:34.241Z,18.15
2017-12-22T10:34:34.421Z,18.15
2017-12-22T10:35:34.344Z,18.15
2017-12-22T10:36:34.176Z,18.15
2017-12-22T10:37:33.848Z,18.16
2017-12-22T10:38:34.182Z,18.15
2017-12-22T10:39:34.028Z,18.17
2017-12-22T10:40:33.593Z,18.13
2017-12-22T10:41:34.326Z,18.15
2017-12-22T10:42:34.033Z,18.16
2017-12-22T10:43:33.824Z,18.15
2017-12-22T10:44:33.809Z,18.15
2017-12-22T10:45:34.020Z,18.13
2017-12-22T10:46:34.009Z,18.15
2017-12-22T10:47:34.017Z,18.16
2017-12-22T10:48:34.381Z,18.15
2017-12-22T10:49:34.009Z,18.15
2017-12-22T10:50:34.253Z,18.13
2017-12-22T10:51:34.190Z,18.13
2017-12-22T10:52:34.080Z,18.26
2017-12-22T10:53:43.694Z,18.25
2017-12-22T10:54:34.267Z,18.29
2017-12-22T10:55:34.172Z,18.27
2017-12-22T10:56:34.192Z,18.3
2017-12-22T10:57:33.844Z,18.29
2017-12-22T10:58:34.419Z,18.32
2017-12-22T10:59:34.206Z,18.33
2017-12-22T11:00:33.834Z,18.36
2017-12-22T11:01:34.066Z,18.36
2017-12-22T11:02:34.338Z,18.36
2017-12-22T11:03:34.224Z,18.39
2017-12-22T11:04:34.195Z,18.39
2017-12-22T11:05:34.390Z,18.4
2017-12-22T11:06:34.069Z,18.42
2017-12-22T11:07:34.388Z,18.44
2017-12-22T11:08:33.956Z,18.43
2017-12-22T11:09:34.061Z,18.44
2017-12-22T11:10:34.417Z,18.46
2017-12-22T11:11:34.588Z,18.47
2017-12-22T11:12:34.032Z,18.5
2017-12-22T11:13:34.448Z,18.49
2017-12-22T11:14:34.242Z,18.47
2017-12-22T11:15:34.248Z,18.47
2017-12-22T11:16:34.016Z,18.47
2017-12-22T11:17:34.456Z,18.47
2017-12-22T11:18:33.972Z,18.47
2017-12-22T11:19:34.079Z,18.49
2017-12-22T11:20:34.028Z,18.46
2017-12-22T11:21:34.229Z,18.47
2017-12-22T11:22:34.378Z,18.46
2017-12-22T11:23:34.025Z,18.46
2017-12-22T11:24:34.397Z,18.44
2017-12-22T11:25:34.096Z,18.46
2017-12-22T11:26:34.110Z,18.44
2017-12-22T11:27:34.047Z,18.46
2017-12-22T11:28:34.057Z,18.47
2017-12-22T11:29:34.381Z,18.47
2017-12-22T11:30:33.821Z,18.46
2017-12-22T11:31:34.200Z,18.46
2017-12-22T11:32:34.153Z,18.47
2017-12-22T11:33:34.269Z,18.49
2017-12-22T11:34:33.992Z,18.46
2017-12-22T11:35:34.051Z,18.44
2017-12-22T11:36:34.092Z,18.49
2017-12-22T11:37:34.000Z,18.5
2017-12-22T11:38:34.267Z,18.47
2017-12-22T11:39:34.035Z,18.47
2017-12-22T11:40:33.856Z,18.52
2017-12-22T11:41:33.827Z,18.49
2017-12-22T11:42:33.890Z,18.49
2017-12-22T11:43:34.089Z,18.47
2017-12-22T11:44:34.293Z,18.47
2017-12-22T11:45:34.465Z,18.49
2017-12-22T11:46:34.238Z,18.49
2017-12-22T11:47:34.191Z,18.47
2017-12-22T11:48:34.234Z,18.46
2017-12-22T11:49:34.269Z,18.46
2017-12-22T11:50:34.057Z,18.46
2017-12-22T11:51:34.028Z,18.46
2017-12-22T11:52:34.244Z,18.46
2017-12-22T11:53:34.008Z,18.44
2017-12-22T11:54:34.057Z,18.44
2017-12-22T11:55:34.002Z,18.46
2017-12-22T11:56:34.124Z,18.47
2017-12-22T11:57:34.244Z,18.43
2017-12-22T11:58:34.462Z,18.43
2017-12-22T11:59:33.879Z,18.44
2017-12-22T12:00:34.224Z,18.43
2017-12-22T12:01:34.135Z,18.43
2017-12-22T12:02:34.419Z,18.43
2017-12-22T12:03:34.061Z,18.42
2017-12-22T12:04:34.058Z,18.44
2017-12-22T12:05:34.248Z,18.43
2017-12-22T12:06:34.039Z,18.44
2017-12-22T12:07:34.281Z,18.44
2017-12-22T12:08:34.215Z,18.43
2017-12-22T12:09:34.053Z,18.44
2017-12-22T12:10:34.052Z,18.44
2017-12-22T12:11:34.255Z,18.44
2017-12-22T12:12:33.916Z,18.49
2017-12-22T12:13:34.092Z,18.46
2017-12-22T12:14:34.087Z,18.47
2017-12-22T12:15:34.071Z,18.44
2017-12-22T12:16:34.036Z,18.44
2017-12-22T12:17:33.835Z,18.44
2017-12-22T12:18:34.229Z,18.44
2017-12-22T12:19:34.238Z,18.46
2017-12-22T12:20:34.021Z,18.44
2017-12-22T12:21:34.098Z,18.44
2017-12-22T12:22:34.494Z,18.46
2017-12-22T12:23:34.268Z,18.44
2017-12-22T12:24:34.113Z,18.46
2017-12-22T12:25:33.858Z,18.46
2017-12-22T12:26:34.213Z,18.46
2017-12-22T12:27:34.308Z,18.44
2017-12-22T12:28:34.241Z,18.46
2017-12-22T12:29:34.350Z,18.46
2017-12-22T12:30:34.254Z,18.49
2017-12-22T12:31:34.269Z,18.47
2017-12-22T12:32:34.277Z,18.47
2017-12-22T12:33:34.038Z,18.47
2017-12-22T12:34:34.122Z,18.47
2017-12-22T12:35:34.032Z,18.49
2017-12-22T12:36:34.253Z,18.49
2017-12-22T12:37:33.935Z,18.5
2017-12-22T12:38:34.240Z,18.47
2017-12-22T12:39:33.662Z,18.5
2017-12-22T12:40:34.044Z,18.52
2017-12-22T12:41:34.824Z,18.5
2017-12-22T12:42:34.258Z,18.49
2017-12-22T12:43:34.533Z,18.5
2017-12-22T12:44:34.442Z,18.5
2017-12-22T12:45:34.219Z,18.52
2017-12-22T12:46:34.567Z,18.5
2017-12-22T12:47:34.064Z,18.52
2017-12-22T12:48:34.453Z,18.52
2017-12-22T12:49:34.350Z,18.56
2017-12-22T12:50:34.268Z,18.56
2017-12-22T12:51:34.279Z,18.6
2017-12-22T12:52:34.311Z,18.6
2017-12-22T12:53:34.133Z,18.63
2017-12-22T12:54:34.493Z,18.63
2017-12-22T12:55:34.138Z,18.66